sensor_id;sensor_type;location;lat;lon;timestamp;temperature;humidity
963;DHT22;469;48.770;9.176;2022-12-10T00:05:41;3.10;1.00
963;DHT22;469;48.770;9.176;2022-12-10T00:08:19;3.10;1.00
963;DHT22;469;48.770;9.176;2022-12-10T00:27:55;2.90;1.00
963;DHT22;469;48.770;9.176;2022-12-10T01:07:11;2.90;1.00
963;DHT22;469;48.770;9.176;2022-12-10T01:13:27;3.00;1.00
963;DHT22;469;48.770;9.176;2022-12-10T01:16:43;2.90;1.00
963;DHT22;469;48.770;9.176;2022-12-10T01:19:39;2.90;1.00
963;DHT22;469;48.770;9.176;2022-12-10T01:26:21;2.70;1.00
963;DHT22;469;48.770;9.176;2022-12-10T01:46:19;2.70;1.00
963;DHT22;469;48.770;9.176;2022-12-10T01:49:03;2.80;1.00
963;DHT22;469;48.770;9.176;2022-12-10T03:20:32;2.80;1.00
963;DHT22;469;48.770;9.176;2022-12-10T03:55:17;2.50;1.00
963;DHT22;469;48.770;9.176;2022-12-10T03:58:24;2.50;1.00
963;DHT22;469;48.770;9.176;2022-12-10T04:08:29;2.70;1.00
963;DHT22;469;48.770;9.176;2022-12-10T04:17:48;2.80;1.00
963;DHT22;469;48.770;9.176;2022-12-10T04:23:40;2.90;1.00
963;DHT22;469;48.770;9.176;2022-12-10T04:28:20;2.90;1.00
963;DHT22;469;48.770;9.176;2022-12-10T04:30:22;2.70;1.00
963;DHT22;469;48.770;9.176;2022-12-10T04:46:05;2.50;1.00
963;DHT22;469;48.770;9.176;2022-12-10T04:50:48;2.50;1.00
963;DHT22;469;48.770;9.176;2022-12-10T04:52:20;2.50;1.00
963;DHT22;469;48.770;9.176;2022-12-10T04:55:05;2.40;1.00
963;DHT22;469;48.770;9.176;2022-12-10T04:58:24;2.30;1.00
963;DHT22;469;48.770;9.176;2022-12-10T05:04:20;2.40;1.00
963;DHT22;469;48.770;9.176;2022-12-10T05:07:17;2.40;1.00
963;DHT22;469;48.770;9.176;2022-12-10T05:09:59;2.30;1.00
963;DHT22;469;48.770;9.176;2022-12-10T05:12:47;2.20;1.00
963;DHT22;469;48.770;9.176;2022-12-10T05:15:34;2.00;1.00
963;DHT22;469;48.770;9.176;2022-12-10T05:18:18;2.00;1.00
963;DHT22;469;48.770;9.176;2022-12-10T05:24:17;2.00;1.00
963;DHT22;469;48.770;9.176;2022-12-10T05:27:06;2.00;1.00
963;DHT22;469;48.770;9.176;2022-12-10T05:30:13;2.00;1.00
963;DHT22;469;48.770;9.176;2022-12-10T05:32:48;2.10;1.00
963;DHT22;469;48.770;9.176;2022-12-10T05:35:57;2.10;1.00
963;DHT22;469;48.770;9.176;2022-12-10T05:38:33;2.20;1.00
963;DHT22;469;48.770;9.176;2022-12-10T05:41:35;2.20;1.00
963;DHT22;469;48.770;9.176;2022-12-10T05:44:23;2.10;1.00
963;DHT22;469;48.770;9.176;2022-12-10T05:47:15;2.00;1.00
963;DHT22;469;48.770;9.176;2022-12-10T05:49:49;2.00;1.00
963;DHT22;469;48.770;9.176;2022-12-10T05:52:52;2.00;1.00
963;DHT22;469;48.770;9.176;2022-12-10T05:55:48;2.10;1.00
963;DHT22;469;48.770;9.176;2022-12-10T05:58:36;2.10;1.00
963;DHT22;469;48.770;9.176;2022-12-10T06:01:29;2.10;1.00
963;DHT22;469;48.770;9.176;2022-12-10T06:07:51;2.10;1.00
963;DHT22;469;48.770;9.176;2022-12-10T06:10:41;2.00;1.00
963;DHT22;469;48.770;9.176;2022-12-10T06:13:08;2.00;1.00
963;DHT22;469;48.770;9.176;2022-12-10T06:15:38;2.00;1.00
963;DHT22;469;48.770;9.176;2022-12-10T06:18:05;2.00;1.00
963;DHT22;469;48.770;9.176;2022-12-10T06:20:32;2.10;1.00
963;DHT22;469;48.770;9.176;2022-12-10T06:23:02;2.10;1.00
963;DHT22;469;48.770;9.176;2022-12-10T06:25:29;2.10;1.00
963;DHT22;469;48.770;9.176;2022-12-10T06:27:56;2.10;1.00
963;DHT22;469;48.770;9.176;2022-12-10T06:30:23;2.00;1.00
963;DHT22;469;48.770;9.176;2022-12-10T06:32:55;2.00;1.00
963;DHT22;469;48.770;9.176;2022-12-10T06:35:22;2.00;1.00
963;DHT22;469;48.770;9.176;2022-12-10T06:37:50;2.10;1.00
963;DHT22;469;48.770;9.176;2022-12-10T06:40:17;2.20;1.00
963;DHT22;469;48.770;9.176;2022-12-10T06:42:45;2.20;1.00
963;DHT22;469;48.770;9.176;2022-12-10T06:45:12;2.20;1.00
963;DHT22;469;48.770;9.176;2022-12-10T06:47:38;2.20;1.00
963;DHT22;469;48.770;9.176;2022-12-10T06:50:10;2.20;1.00
963;DHT22;469;48.770;9.176;2022-12-10T06:52:39;2.10;1.00
963;DHT22;469;48.770;9.176;2022-12-10T06:55:06;2.20;1.00
963;DHT22;469;48.770;9.176;2022-12-10T06:57:33;2.20;1.00
963;DHT22;469;48.770;9.176;2022-12-10T07:00:00;2.20;1.00
963;DHT22;469;48.770;9.176;2022-12-10T07:02:27;2.20;1.00
963;DHT22;469;48.770;9.176;2022-12-10T07:05:11;2.30;1.00
963;DHT22;469;48.770;9.176;2022-12-10T07:07:53;2.20;1.00
963;DHT22;469;48.770;9.176;2022-12-10T07:10:23;2.40;1.00
963;DHT22;469;48.770;9.176;2022-12-10T07:12:49;2.40;1.00
963;DHT22;469;48.770;9.176;2022-12-10T07:15:16;2.30;1.00
963;DHT22;469;48.770;9.176;2022-12-10T07:17:46;2.30;1.00
963;DHT22;469;48.770;9.176;2022-12-10T07:20:15;2.30;1.00
963;DHT22;469;48.770;9.176;2022-12-10T07:22:45;2.30;1.00
963;DHT22;469;48.770;9.176;2022-12-10T07:25:13;2.20;1.00
963;DHT22;469;48.770;9.176;2022-12-10T07:27:40;2.30;1.00
963;DHT22;469;48.770;9.176;2022-12-10T07:30:08;2.20;1.00
963;DHT22;469;48.770;9.176;2022-12-10T07:32:35;2.30;1.00
963;DHT22;469;48.770;9.176;2022-12-10T07:35:03;2.30;1.00
963;DHT22;469;48.770;9.176;2022-12-10T07:37:30;2.30;1.00
963;DHT22;469;48.770;9.176;2022-12-10T07:39:57;2.30;1.00
963;DHT22;469;48.770;9.176;2022-12-10T07:42:25;2.30;1.00
963;DHT22;469;48.770;9.176;2022-12-10T07:44:52;2.30;1.00
963;DHT22;469;48.770;9.176;2022-12-10T07:47:19;2.30;1.00
963;DHT22;469;48.770;9.176;2022-12-10T07:49:46;2.20;1.00
963;DHT22;469;48.770;9.176;2022-12-10T07:52:13;2.20;1.00
963;DHT22;469;48.770;9.176;2022-12-10T07:54:40;2.30;1.00
963;DHT22;469;48.770;9.176;2022-12-10T07:57:06;2.20;1.00
963;DHT22;469;48.770;9.176;2022-12-10T07:59:35;2.20;1.00
963;DHT22;469;48.770;9.176;2022-12-10T08:02:01;2.20;1.00
963;DHT22;469;48.770;9.176;2022-12-10T08:04:29;2.20;1.00
963;DHT22;469;48.770;9.176;2022-12-10T08:06:56;2.20;1.00
963;DHT22;469;48.770;9.176;2022-12-10T08:09:23;2.20;1.00
963;DHT22;469;48.770;9.176;2022-12-10T08:11:50;2.20;1.00
963;DHT22;469;48.770;9.176;2022-12-10T08:14:18;2.20;1.00
963;DHT22;469;48.770;9.176;2022-12-10T08:16:50;2.20;1.00
963;DHT22;469;48.770;9.176;2022-12-10T08:19:54;2.10;1.00
963;DHT22;469;48.770;9.176;2022-12-10T08:22:21;2.20;1.00
963;DHT22;469;48.770;9.176;2022-12-10T08:24:48;2.10;1.00
963;DHT22;469;48.770;9.176;2022-12-10T08:27:15;2.10;1.00
963;DHT22;469;48.770;9.176;2022-12-10T08:29:47;2.10;1.00
963;DHT22;469;48.770;9.176;2022-12-10T08:32:18;2.10;1.00
963;DHT22;469;48.770;9.176;2022-12-10T08:34:45;2.10;1.00
963;DHT22;469;48.770;9.176;2022-12-10T08:37:15;2.30;1.00
963;DHT22;469;48.770;9.176;2022-12-10T08:39:42;2.30;1.00
963;DHT22;469;48.770;9.176;2022-12-10T08:42:10;2.20;1.00
963;DHT22;469;48.770;9.176;2022-12-10T08:44:37;2.30;1.00
963;DHT22;469;48.770;9.176;2022-12-10T08:47:04;2.30;1.00
963;DHT22;469;48.770;9.176;2022-12-10T08:49:41;2.30;1.00
963;DHT22;469;48.770;9.176;2022-12-10T08:52:11;2.40;1.00
963;DHT22;469;48.770;9.176;2022-12-10T08:54:46;2.50;1.00
963;DHT22;469;48.770;9.176;2022-12-10T08:57:16;2.60;1.00
963;DHT22;469;48.770;9.176;2022-12-10T08:59:46;2.70;1.00
963;DHT22;469;48.770;9.176;2022-12-10T09:02:13;2.60;1.00
963;DHT22;469;48.770;9.176;2022-12-10T09:04:41;2.60;1.00
963;DHT22;469;48.770;9.176;2022-12-10T09:07:11;2.60;1.00
963;DHT22;469;48.770;9.176;2022-12-10T09:09:40;2.60;1.00
963;DHT22;469;48.770;9.176;2022-12-10T09:12:07;2.70;1.00
963;DHT22;469;48.770;9.176;2022-12-10T09:14:34;2.80;1.00
963;DHT22;469;48.770;9.176;2022-12-10T09:17:03;2.70;1.00
963;DHT22;469;48.770;9.176;2022-12-10T09:19:30;2.70;1.00
963;DHT22;469;48.770;9.176;2022-12-10T09:21:59;2.70;1.00
963;DHT22;469;48.770;9.176;2022-12-10T09:24:25;2.90;1.00
963;DHT22;469;48.770;9.176;2022-12-10T09:26:55;3.00;1.00
963;DHT22;469;48.770;9.176;2022-12-10T09:29:22;3.10;1.00
963;DHT22;469;48.770;9.176;2022-12-10T09:31:50;3.00;1.00
963;DHT22;469;48.770;9.176;2022-12-10T09:34:17;3.10;1.00
963;DHT22;469;48.770;9.176;2022-12-10T09:36:44;3.20;1.00
963;DHT22;469;48.770;9.176;2022-12-10T09:39:13;3.30;1.00
963;DHT22;469;48.770;9.176;2022-12-10T09:42:10;3.10;1.00
963;DHT22;469;48.770;9.176;2022-12-10T09:44:50;3.00;1.00
963;DHT22;469;48.770;9.176;2022-12-10T09:47:20;2.90;1.00
963;DHT22;469;48.770;9.176;2022-12-10T09:49:55;2.90;1.00
963;DHT22;469;48.770;9.176;2022-12-10T09:52:25;2.90;1.00
963;DHT22;469;48.770;9.176;2022-12-10T09:54:57;2.90;1.00
963;DHT22;469;48.770;9.176;2022-12-10T09:57:28;2.80;1.00
963;DHT22;469;48.770;9.176;2022-12-10T09:59:59;2.90;1.00
963;DHT22;469;48.770;9.176;2022-12-10T10:02:29;2.90;1.00
963;DHT22;469;48.770;9.176;2022-12-10T10:05:10;3.00;1.00
963;DHT22;469;48.770;9.176;2022-12-10T10:07:41;2.90;1.00
963;DHT22;469;48.770;9.176;2022-12-10T10:10:20;3.00;1.00
963;DHT22;469;48.770;9.176;2022-12-10T10:12:48;3.00;1.00
963;DHT22;469;48.770;9.176;2022-12-10T10:15:19;2.90;1.00
963;DHT22;469;48.770;9.176;2022-12-10T10:17:49;2.90;1.00
963;DHT22;469;48.770;9.176;2022-12-10T10:20:19;2.90;1.00
963;DHT22;469;48.770;9.176;2022-12-10T10:22:46;3.00;1.00
963;DHT22;469;48.770;9.176;2022-12-10T10:25:16;3.10;1.00
963;DHT22;469;48.770;9.176;2022-12-10T10:27:44;3.20;1.00
963;DHT22;469;48.770;9.176;2022-12-10T10:30:15;3.00;1.00
963;DHT22;469;48.770;9.176;2022-12-10T10:32:54;2.90;1.00
963;DHT22;469;48.770;9.176;2022-12-10T10:35:27;2.80;1.00
963;DHT22;469;48.770;9.176;2022-12-10T10:37:58;2.80;1.00
963;DHT22;469;48.770;9.176;2022-12-10T10:40:29;2.80;1.00
963;DHT22;469;48.770;9.176;2022-12-10T10:42:58;2.90;1.00
963;DHT22;469;48.770;9.176;2022-12-10T10:45:38;2.90;1.00
963;DHT22;469;48.770;9.176;2022-12-10T10:48:09;2.80;1.00
963;DHT22;469;48.770;9.176;2022-12-10T10:50:38;2.80;1.00
963;DHT22;469;48.770;9.176;2022-12-10T10:53:28;2.80;1.00
963;DHT22;469;48.770;9.176;2022-12-10T10:56:00;2.80;1.00
963;DHT22;469;48.770;9.176;2022-12-10T10:58:31;2.90;1.00
963;DHT22;469;48.770;9.176;2022-12-10T11:01:00;3.00;1.00
963;DHT22;469;48.770;9.176;2022-12-10T11:03:29;3.10;1.00
963;DHT22;469;48.770;9.176;2022-12-10T11:05:59;3.30;1.00
963;DHT22;469;48.770;9.176;2022-12-10T11:08:29;3.20;1.00
963;DHT22;469;48.770;9.176;2022-12-10T11:11:02;3.40;1.00
963;DHT22;469;48.770;9.176;2022-12-10T11:13:31;3.50;1.00
963;DHT22;469;48.770;9.176;2022-12-10T11:16:02;3.40;1.00
963;DHT22;469;48.770;9.176;2022-12-10T11:18:37;3.30;1.00
963;DHT22;469;48.770;9.176;2022-12-10T11:21:06;3.20;1.00
963;DHT22;469;48.770;9.176;2022-12-10T11:23:39;3.20;1.00
963;DHT22;469;48.770;9.176;2022-12-10T11:26:21;3.30;1.00
963;DHT22;469;48.770;9.176;2022-12-10T11:29:02;3.20;1.00
963;DHT22;469;48.770;9.176;2022-12-10T11:31:46;3.10;1.00
963;DHT22;469;48.770;9.176;2022-12-10T11:34:20;3.10;1.00
963;DHT22;469;48.770;9.176;2022-12-10T11:36:57;3.10;1.00
963;DHT22;469;48.770;9.176;2022-12-10T11:39:51;3.20;1.00
963;DHT22;469;48.770;9.176;2022-12-10T11:42:27;3.30;1.00
963;DHT22;469;48.770;9.176;2022-12-10T11:45:02;3.30;1.00
963;DHT22;469;48.770;9.176;2022-12-10T11:47:41;3.50;1.00
963;DHT22;469;48.770;9.176;2022-12-10T11:50:18;3.50;1.00
963;DHT22;469;48.770;9.176;2022-12-10T11:53:08;3.30;1.00
963;DHT22;469;48.770;9.176;2022-12-10T11:55:46;3.40;1.00
963;DHT22;469;48.770;9.176;2022-12-10T11:58:29;3.50;1.00
963;DHT22;469;48.770;9.176;2022-12-10T12:01:03;3.70;1.00
963;DHT22;469;48.770;9.176;2022-12-10T12:03:55;3.80;1.00
963;DHT22;469;48.770;9.176;2022-12-10T12:09:29;3.40;1.00
963;DHT22;469;48.770;9.176;2022-12-10T12:12:13;3.30;1.00
963;DHT22;469;48.770;9.176;2022-12-10T12:14:46;3.50;1.00
963;DHT22;469;48.770;9.176;2022-12-10T12:17:22;3.60;1.00
963;DHT22;469;48.770;9.176;2022-12-10T12:19:57;3.80;1.00
963;DHT22;469;48.770;9.176;2022-12-10T12:22:27;3.60;1.00
963;DHT22;469;48.770;9.176;2022-12-10T12:24:59;3.80;1.00
963;DHT22;469;48.770;9.176;2022-12-10T12:27:33;3.90;1.00
963;DHT22;469;48.770;9.176;2022-12-10T12:30:05;3.90;1.00
963;DHT22;469;48.770;9.176;2022-12-10T12:32:45;3.80;1.00
963;DHT22;469;48.770;9.176;2022-12-10T12:35:16;3.70;1.00
963;DHT22;469;48.770;9.176;2022-12-10T12:37:50;3.50;1.00
963;DHT22;469;48.770;9.176;2022-12-10T12:40:28;3.60;1.00
963;DHT22;469;48.770;9.176;2022-12-10T12:43:01;3.50;1.00
963;DHT22;469;48.770;9.176;2022-12-10T12:45:38;3.50;1.00
963;DHT22;469;48.770;9.176;2022-12-10T12:48:18;3.60;1.00
963;DHT22;469;48.770;9.176;2022-12-10T12:50:50;3.60;1.00
963;DHT22;469;48.770;9.176;2022-12-10T12:53:20;3.60;1.00
963;DHT22;469;48.770;9.176;2022-12-10T12:55:57;3.40;1.00
963;DHT22;469;48.770;9.176;2022-12-10T12:58:35;3.60;1.00
963;DHT22;469;48.770;9.176;2022-12-10T13:01:20;3.60;1.00
963;DHT22;469;48.770;9.176;2022-12-10T13:03:50;3.60;1.00
963;DHT22;469;48.770;9.176;2022-12-10T13:06:20;3.50;1.00
963;DHT22;469;48.770;9.176;2022-12-10T13:08:50;3.40;1.00
963;DHT22;469;48.770;9.176;2022-12-10T13:11:29;3.60;1.00
963;DHT22;469;48.770;9.176;2022-12-10T13:14:16;3.50;1.00
963;DHT22;469;48.770;9.176;2022-12-10T13:16:58;3.40;1.00
963;DHT22;469;48.770;9.176;2022-12-10T13:19:28;3.40;1.00
963;DHT22;469;48.770;9.176;2022-12-10T13:22:00;3.40;1.00
963;DHT22;469;48.770;9.176;2022-12-10T13:24:46;3.40;1.00
963;DHT22;469;48.770;9.176;2022-12-10T13:27:18;3.40;1.00
963;DHT22;469;48.770;9.176;2022-12-10T13:29:54;3.40;1.00
963;DHT22;469;48.770;9.176;2022-12-10T13:32:24;3.30;1.00
963;DHT22;469;48.770;9.176;2022-12-10T13:35:29;3.30;1.00
963;DHT22;469;48.770;9.176;2022-12-10T13:38:03;3.30;1.00
963;DHT22;469;48.770;9.176;2022-12-10T13:40:40;3.30;1.00
963;DHT22;469;48.770;9.176;2022-12-10T13:43:28;3.20;1.00
963;DHT22;469;48.770;9.176;2022-12-10T13:46:30;3.20;1.00
963;DHT22;469;48.770;9.176;2022-12-10T13:49:00;3.20;1.00
963;DHT22;469;48.770;9.176;2022-12-10T13:51:51;3.20;1.00
963;DHT22;469;48.770;9.176;2022-12-10T13:54:44;3.10;1.00
963;DHT22;469;48.770;9.176;2022-12-10T13:57:48;3.00;1.00
963;DHT22;469;48.770;9.176;2022-12-10T14:00:20;3.00;1.00
963;DHT22;469;48.770;9.176;2022-12-10T14:03:01;3.00;1.00
963;DHT22;469;48.770;9.176;2022-12-10T14:06:11;3.00;1.00
963;DHT22;469;48.770;9.176;2022-12-10T14:08:40;3.10;1.00
963;DHT22;469;48.770;9.176;2022-12-10T14:11:16;3.10;1.00
963;DHT22;469;48.770;9.176;2022-12-10T14:13:52;3.00;1.00
963;DHT22;469;48.770;9.176;2022-12-10T14:16:21;3.00;1.00
963;DHT22;469;48.770;9.176;2022-12-10T14:18:53;3.00;1.00
963;DHT22;469;48.770;9.176;2022-12-10T14:21:27;3.00;1.00
963;DHT22;469;48.770;9.176;2022-12-10T14:24:00;3.00;1.00
963;DHT22;469;48.770;9.176;2022-12-10T14:26:28;3.00;1.00
963;DHT22;469;48.770;9.176;2022-12-10T14:28:57;2.90;1.00
963;DHT22;469;48.770;9.176;2022-12-10T14:31:28;2.90;1.00
963;DHT22;469;48.770;9.176;2022-12-10T14:34:01;2.80;1.00
963;DHT22;469;48.770;9.176;2022-12-10T14:36:35;2.90;1.00
963;DHT22;469;48.770;9.176;2022-12-10T14:39:15;2.80;1.00
963;DHT22;469;48.770;9.176;2022-12-10T14:41:43;2.80;1.00
963;DHT22;469;48.770;9.176;2022-12-10T14:44:14;2.70;1.00
963;DHT22;469;48.770;9.176;2022-12-10T14:46:46;2.60;1.00
963;DHT22;469;48.770;9.176;2022-12-10T14:49:17;2.60;1.00
963;DHT22;469;48.770;9.176;2022-12-10T14:51:45;2.50;1.00
963;DHT22;469;48.770;9.176;2022-12-10T14:54:25;2.50;1.00
963;DHT22;469;48.770;9.176;2022-12-10T14:56:59;2.50;1.00
963;DHT22;469;48.770;9.176;2022-12-10T14:59:30;2.40;1.00
963;DHT22;469;48.770;9.176;2022-12-10T15:02:02;2.40;1.00
963;DHT22;469;48.770;9.176;2022-12-10T15:04:40;2.30;1.00
963;DHT22;469;48.770;9.176;2022-12-10T15:07:13;2.30;1.00
963;DHT22;469;48.770;9.176;2022-12-10T15:09:42;2.20;1.00
963;DHT22;469;48.770;9.176;2022-12-10T15:12:26;2.30;1.00
963;DHT22;469;48.770;9.176;2022-12-10T15:15:09;2.30;1.00
963;DHT22;469;48.770;9.176;2022-12-10T15:17:55;2.10;1.00
963;DHT22;469;48.770;9.176;2022-12-10T15:20:26;2.10;1.00
963;DHT22;469;48.770;9.176;2022-12-10T15:23:07;2.10;1.00
963;DHT22;469;48.770;9.176;2022-12-10T15:25:41;2.00;1.00
963;DHT22;469;48.770;9.176;2022-12-10T15:28:24;2.00;1.00
963;DHT22;469;48.770;9.176;2022-12-10T15:30:58;2.10;1.00
963;DHT22;469;48.770;9.176;2022-12-10T15:33:32;2.00;1.00
963;DHT22;469;48.770;9.176;2022-12-10T15:36:00;1.90;1.00
963;DHT22;469;48.770;9.176;2022-12-10T15:38:29;1.90;1.00
963;DHT22;469;48.770;9.176;2022-12-10T15:41:21;1.80;1.00
963;DHT22;469;48.770;9.176;2022-12-10T15:43:58;1.80;1.00
963;DHT22;469;48.770;9.176;2022-12-10T15:46:49;1.80;1.00
963;DHT22;469;48.770;9.176;2022-12-10T15:49:16;1.80;1.00
963;DHT22;469;48.770;9.176;2022-12-10T15:51:43;1.80;1.00
963;DHT22;469;48.770;9.176;2022-12-10T15:54:21;1.70;1.00
963;DHT22;469;48.770;9.176;2022-12-10T15:56:51;1.70;1.00
963;DHT22;469;48.770;9.176;2022-12-10T15:59:18;1.80;1.00
963;DHT22;469;48.770;9.176;2022-12-10T16:01:50;1.80;1.00
963;DHT22;469;48.770;9.176;2022-12-10T16:04:22;1.80;1.00
963;DHT22;469;48.770;9.176;2022-12-10T16:06:49;1.70;1.00
963;DHT22;469;48.770;9.176;2022-12-10T16:09:18;1.80;1.00
963;DHT22;469;48.770;9.176;2022-12-10T16:11:47;1.70;1.00
963;DHT22;469;48.770;9.176;2022-12-10T16:14:15;1.70;1.00
963;DHT22;469;48.770;9.176;2022-12-10T16:16:42;1.70;1.00
963;DHT22;469;48.770;9.176;2022-12-10T16:19:12;1.70;1.00
963;DHT22;469;48.770;9.176;2022-12-10T16:21:41;1.70;1.00
963;DHT22;469;48.770;9.176;2022-12-10T16:24:11;1.70;1.00
963;DHT22;469;48.770;9.176;2022-12-10T16:26:42;1.70;1.00
963;DHT22;469;48.770;9.176;2022-12-10T16:29:15;1.80;1.00
963;DHT22;469;48.770;9.176;2022-12-10T16:31:46;1.90;1.00
963;DHT22;469;48.770;9.176;2022-12-10T16:34:28;1.80;1.00
963;DHT22;469;48.770;9.176;2022-12-10T16:37:00;1.80;1.00
963;DHT22;469;48.770;9.176;2022-12-10T16:39:27;1.80;1.00
963;DHT22;469;48.770;9.176;2022-12-10T16:41:56;1.80;1.00
963;DHT22;469;48.770;9.176;2022-12-10T16:44:40;1.80;1.00
963;DHT22;469;48.770;9.176;2022-12-10T16:47:16;1.80;1.00
963;DHT22;469;48.770;9.176;2022-12-10T16:50:01;1.80;1.00
963;DHT22;469;48.770;9.176;2022-12-10T16:52:42;1.70;1.00
963;DHT22;469;48.770;9.176;2022-12-10T16:55:16;1.70;1.00
963;DHT22;469;48.770;9.176;2022-12-10T16:58:10;1.80;1.00
963;DHT22;469;48.770;9.176;2022-12-10T17:00:45;1.80;1.00
963;DHT22;469;48.770;9.176;2022-12-10T17:03:41;1.80;1.00
963;DHT22;469;48.770;9.176;2022-12-10T17:06:11;1.80;1.00
963;DHT22;469;48.770;9.176;2022-12-10T17:08:41;1.80;1.00
963;DHT22;469;48.770;9.176;2022-12-10T17:11:20;1.70;1.00
963;DHT22;469;48.770;9.176;2022-12-10T17:14:15;1.70;1.00
963;DHT22;469;48.770;9.176;2022-12-10T17:16:46;1.70;1.00
963;DHT22;469;48.770;9.176;2022-12-10T17:19:14;1.70;1.00
963;DHT22;469;48.770;9.176;2022-12-10T17:21:43;1.80;1.00
963;DHT22;469;48.770;9.176;2022-12-10T17:24:10;1.80;1.00
963;DHT22;469;48.770;9.176;2022-12-10T17:26:48;1.80;1.00
963;DHT22;469;48.770;9.176;2022-12-10T17:29:22;1.80;1.00
963;DHT22;469;48.770;9.176;2022-12-10T17:31:56;1.80;1.00
963;DHT22;469;48.770;9.176;2022-12-10T17:34:26;1.70;1.00
963;DHT22;469;48.770;9.176;2022-12-10T17:36:56;1.70;1.00
963;DHT22;469;48.770;9.176;2022-12-10T17:39:23;1.70;1.00
963;DHT22;469;48.770;9.176;2022-12-10T17:41:51;1.70;1.00
963;DHT22;469;48.770;9.176;2022-12-10T17:44:23;1.70;1.00
963;DHT22;469;48.770;9.176;2022-12-10T17:47:15;1.60;1.00
963;DHT22;469;48.770;9.176;2022-12-10T17:50:05;1.60;1.00
963;DHT22;469;48.770;9.176;2022-12-10T17:52:43;1.60;1.00
963;DHT22;469;48.770;9.176;2022-12-10T17:55:12;1.60;1.00
963;DHT22;469;48.770;9.176;2022-12-10T17:57:40;1.60;1.00
963;DHT22;469;48.770;9.176;2022-12-10T18:00:20;1.60;1.00
963;DHT22;469;48.770;9.176;2022-12-10T18:03:00;1.60;1.00
963;DHT22;469;48.770;9.176;2022-12-10T18:05:39;1.60;1.00
963;DHT22;469;48.770;9.176;2022-12-10T18:08:13;1.70;1.00
963;DHT22;469;48.770;9.176;2022-12-10T18:10:51;1.70;1.00
963;DHT22;469;48.770;9.176;2022-12-10T18:13:29;1.60;1.00
963;DHT22;469;48.770;9.176;2022-12-10T18:16:08;1.50;1.00
963;DHT22;469;48.770;9.176;2022-12-10T18:18:42;1.50;1.00
963;DHT22;469;48.770;9.176;2022-12-10T18:24:32;1.60;1.00
963;DHT22;469;48.770;9.176;2022-12-10T18:27:09;1.60;1.00
963;DHT22;469;48.770;9.176;2022-12-10T18:29:40;1.50;1.00
963;DHT22;469;48.770;9.176;2022-12-10T18:32:09;1.50;1.00
963;DHT22;469;48.770;9.176;2022-12-10T18:34:48;1.50;1.00
963;DHT22;469;48.770;9.176;2022-12-10T18:37:20;1.60;1.00
963;DHT22;469;48.770;9.176;2022-12-10T18:39:50;1.60;1.00
963;DHT22;469;48.770;9.176;2022-12-10T18:42:17;1.60;1.00
963;DHT22;469;48.770;9.176;2022-12-10T18:44:44;1.60;1.00
963;DHT22;469;48.770;9.176;2022-12-10T18:47:15;1.60;1.00
963;DHT22;469;48.770;9.176;2022-12-10T18:49:51;1.60;1.00
963;DHT22;469;48.770;9.176;2022-12-10T18:52:23;1.70;1.00
963;DHT22;469;48.770;9.176;2022-12-10T18:54:51;1.70;1.00
963;DHT22;469;48.770;9.176;2022-12-10T18:57:21;1.60;1.00
963;DHT22;469;48.770;9.176;2022-12-10T18:59:59;1.50;1.00
963;DHT22;469;48.770;9.176;2022-12-10T19:02:29;1.50;1.00
963;DHT22;469;48.770;9.176;2022-12-10T19:04:57;1.60;1.00
963;DHT22;469;48.770;9.176;2022-12-10T19:07:25;1.50;1.00
963;DHT22;469;48.770;9.176;2022-12-10T19:10:02;1.50;1.00
963;DHT22;469;48.770;9.176;2022-12-10T19:12:30;1.60;1.00
963;DHT22;469;48.770;9.176;2022-12-10T19:14:57;1.60;1.00
963;DHT22;469;48.770;9.176;2022-12-10T19:17:24;1.60;1.00
963;DHT22;469;48.770;9.176;2022-12-10T19:20:00;1.60;1.00
963;DHT22;469;48.770;9.176;2022-12-10T19:22:52;1.60;1.00
963;DHT22;469;48.770;9.176;2022-12-10T19:25:21;1.60;1.00
963;DHT22;469;48.770;9.176;2022-12-10T19:28:02;1.60;1.00
963;DHT22;469;48.770;9.176;2022-12-10T19:30:44;1.60;1.00
963;DHT22;469;48.770;9.176;2022-12-10T19:33:25;1.50;1.00
963;DHT22;469;48.770;9.176;2022-12-10T19:36:03;1.50;1.00
963;DHT22;469;48.770;9.176;2022-12-10T19:38:35;1.40;1.00
963;DHT22;469;48.770;9.176;2022-12-10T19:41:02;1.40;1.00
963;DHT22;469;48.770;9.176;2022-12-10T19:43:31;1.40;1.00
963;DHT22;469;48.770;9.176;2022-12-10T19:46:12;1.40;1.00
963;DHT22;469;48.770;9.176;2022-12-10T19:48:39;1.40;1.00
963;DHT22;469;48.770;9.176;2022-12-10T19:51:14;1.30;1.00
963;DHT22;469;48.770;9.176;2022-12-10T19:53:44;1.30;1.00
963;DHT22;469;48.770;9.176;2022-12-10T19:56:18;1.20;1.00
963;DHT22;469;48.770;9.176;2022-12-10T19:58:46;1.20;1.00
963;DHT22;469;48.770;9.176;2022-12-10T20:01:18;1.10;1.00
963;DHT22;469;48.770;9.176;2022-12-10T20:03:46;1.20;1.00
963;DHT22;469;48.770;9.176;2022-12-10T20:06:18;1.10;1.00
963;DHT22;469;48.770;9.176;2022-12-10T20:08:47;1.00;1.00
963;DHT22;469;48.770;9.176;2022-12-10T20:11:14;1.10;1.00
963;DHT22;469;48.770;9.176;2022-12-10T20:13:43;1.10;1.00
963;DHT22;469;48.770;9.176;2022-12-10T20:16:18;1.10;1.00
963;DHT22;469;48.770;9.176;2022-12-10T20:18:48;1.00;1.00
963;DHT22;469;48.770;9.176;2022-12-10T20:21:19;1.00;1.00
963;DHT22;469;48.770;9.176;2022-12-10T20:23:46;0.90;1.00
963;DHT22;469;48.770;9.176;2022-12-10T20:26:16;0.80;1.00
963;DHT22;469;48.770;9.176;2022-12-10T20:28:44;0.70;1.00
963;DHT22;469;48.770;9.176;2022-12-10T20:31:17;0.60;1.00
963;DHT22;469;48.770;9.176;2022-12-10T20:33:47;0.60;1.00
963;DHT22;469;48.770;9.176;2022-12-10T20:36:21;0.60;1.00
963;DHT22;469;48.770;9.176;2022-12-10T20:39:00;0.50;1.00
963;DHT22;469;48.770;9.176;2022-12-10T20:41:36;0.50;1.00
963;DHT22;469;48.770;9.176;2022-12-10T20:44:03;0.50;1.00
963;DHT22;469;48.770;9.176;2022-12-10T20:46:34;0.50;1.00
963;DHT22;469;48.770;9.176;2022-12-10T20:49:02;0.50;1.00
963;DHT22;469;48.770;9.176;2022-12-10T20:51:31;0.40;1.00
963;DHT22;469;48.770;9.176;2022-12-10T20:53:58;0.40;1.00
963;DHT22;469;48.770;9.176;2022-12-10T20:56:25;0.30;1.00
963;DHT22;469;48.770;9.176;2022-12-10T20:58:52;0.30;1.00
963;DHT22;469;48.770;9.176;2022-12-10T21:01:20;0.20;1.00
963;DHT22;469;48.770;9.176;2022-12-10T21:03:47;0.20;1.00
963;DHT22;469;48.770;9.176;2022-12-10T21:06:16;0.20;1.00
963;DHT22;469;48.770;9.176;2022-12-10T21:11:26;0.20;1.00
963;DHT22;469;48.770;9.176;2022-12-10T21:14:06;0.10;1.00
963;DHT22;469;48.770;9.176;2022-12-10T21:16:35;0.10;1.00
963;DHT22;469;48.770;9.176;2022-12-10T21:19:05;0.00;1.00
963;DHT22;469;48.770;9.176;2022-12-10T21:21:41;0.00;1.00
963;DHT22;469;48.770;9.176;2022-12-10T21:24:30;0.00;1.00
963;DHT22;469;48.770;9.176;2022-12-10T21:27:17;-0.10;1.00
963;DHT22;469;48.770;9.176;2022-12-10T21:29:59;-0.10;1.00
963;DHT22;469;48.770;9.176;2022-12-10T21:32:46;-0.10;1.00
963;DHT22;469;48.770;9.176;2022-12-10T21:35:29;0.00;1.00
963;DHT22;469;48.770;9.176;2022-12-10T21:38:00;-0.10;1.00
963;DHT22;469;48.770;9.176;2022-12-10T21:40:44;-0.20;1.00
963;DHT22;469;48.770;9.176;2022-12-10T21:43:38;-0.20;1.00
963;DHT22;469;48.770;9.176;2022-12-10T21:46:33;-0.20;1.00
963;DHT22;469;48.770;9.176;2022-12-10T21:49:00;-0.20;1.00
963;DHT22;469;48.770;9.176;2022-12-10T21:51:34;-0.20;1.00
963;DHT22;469;48.770;9.176;2022-12-10T21:54:24;-0.20;1.00
963;DHT22;469;48.770;9.176;2022-12-10T21:56:51;0.00;1.00
963;DHT22;469;48.770;9.176;2022-12-10T21:59:26;-0.20;1.00
963;DHT22;469;48.770;9.176;2022-12-10T22:02:04;-0.30;1.00
963;DHT22;469;48.770;9.176;2022-12-10T22:04:39;-0.30;1.00
963;DHT22;469;48.770;9.176;2022-12-10T22:07:15;-0.20;1.00
963;DHT22;469;48.770;9.176;2022-12-10T22:10:00;-0.30;1.00
963;DHT22;469;48.770;9.176;2022-12-10T22:12:33;-0.30;1.00
963;DHT22;469;48.770;9.176;2022-12-10T22:15:05;-0.20;1.00
963;DHT22;469;48.770;9.176;2022-12-10T22:17:35;-0.30;1.00